sensor_id;sensor_type;location;lat;lon;timestamp;pressure;altitude;pressure_sealevel;temperature;humidity
57000;BME280;42891;50.006;21.964;2023-05-10T00:02:15;50904.50;;;-146.02;43.54
57000;BME280;42891;50.006;21.964;2023-05-10T00:06:16;50852.41;;;-146.02;43.75
57000;BME280;42891;50.006;21.964;2023-05-10T00:10:16;50880.47;;;-146.02;43.50
57000;BME280;42891;50.006;21.964;2023-05-10T00:14:17;50896.50;;;-146.02;43.56
57000;BME280;42891;50.006;21.964;2023-05-10T00:18:20;50856.41;;;-146.02;43.47
57000;BME280;42891;50.006;21.964;2023-05-10T00:22:25;50872.44;;;-146.02;43.38
57000;BME280;42891;50.006;21.964;2023-05-10T00:26:26;50884.47;;;-146.02;43.44
57000;BME280;42891;50.006;21.964;2023-05-10T00:30:26;50900.50;;;-146.02;43.31
57000;BME280;42891;50.006;21.964;2023-05-10T00:34:26;50864.44;;;-146.02;43.47
57000;BME280;42891;50.006;21.964;2023-05-10T00:38:27;50874.44;;;-146.02;43.43
57000;BME280;42891;50.006;21.964;2023-05-10T00:42:27;50810.34;;;-146.02;43.38
57000;BME280;42891;50.006;21.964;2023-05-10T00:46:30;50854.41;;;-146.02;43.47
57000;BME280;42891;50.006;21.964;2023-05-10T00:50:32;50892.47;;;-146.02;43.54
57000;BME280;42891;50.006;21.964;2023-05-10T00:54:33;50866.44;;;-146.02;43.44
57000;BME280;42891;50.006;21.964;2023-05-10T00:58:34;50888.47;;;-146.02;43.40
57000;BME280;42891;50.006;21.964;2023-05-10T01:02:34;50856.41;;;-146.02;43.36
57000;BME280;42891;50.006;21.964;2023-05-10T01:06:42;50888.47;;;-146.02;43.29
57000;BME280;42891;50.006;21.964;2023-05-10T01:10:45;50846.41;;;-146.02;43.35
57000;BME280;42891;50.006;21.964;2023-05-10T01:14:46;50888.47;;;-146.02;43.35
57000;BME280;42891;50.006;21.964;2023-05-10T01:18:47;50906.50;;;-146.02;43.20
57000;BME280;42891;50.006;21.964;2023-05-10T01:23:19;50872.44;;;-146.02;43.27
57000;BME280;42891;50.006;21.964;2023-05-10T01:27:42;50856.41;;;-146.02;43.26
57000;BME280;42891;50.006;21.964;2023-05-10T01:32:11;50858.41;;;-146.02;43.27
57000;BME280;42891;50.006;21.964;2023-05-10T01:36:35;50892.47;;;-146.02;43.32
57000;BME280;42891;50.006;21.964;2023-05-10T01:40:51;50830.38;;;-146.02;43.25
57000;BME280;42891;50.006;21.964;2023-05-10T01:45:11;50846.41;;;-146.02;43.31
57000;BME280;42891;50.006;21.964;2023-05-10T01:49:24;50888.47;;;-146.02;43.34
57000;BME280;42891;50.006;21.964;2023-05-10T01:53:28;50852.41;;;-146.02;43.11
57000;BME280;42891;50.006;21.964;2023-05-10T01:57:33;50868.44;;;-146.02;43.23
57000;BME280;42891;50.006;21.964;2023-05-10T02:01:37;50878.47;;;-146.02;43.21
57000;BME280;42891;50.006;21.964;2023-05-10T02:05:43;50856.41;;;-146.02;43.21
57000;BME280;42891;50.006;21.964;2023-05-10T02:09:45;50906.50;;;-146.02;43.18
57000;BME280;42891;50.006;21.964;2023-05-10T02:13:50;50850.41;;;-146.02;43.21
57000;BME280;42891;50.006;21.964;2023-05-10T02:17:54;50866.44;;;-146.02;43.31
57000;BME280;42891;50.006;21.964;2023-05-10T02:21:56;50882.47;;;-146.02;43.34
57000;BME280;42891;50.006;21.964;2023-05-10T02:26:01;50876.44;;;-146.02;43.22
57000;BME280;42891;50.006;21.964;2023-05-10T02:30:02;50894.50;;;-146.02;43.26
57000;BME280;42891;50.006;21.964;2023-05-10T02:34:07;50892.47;;;-146.02;43.09
57000;BME280;42891;50.006;21.964;2023-05-10T02:38:09;50882.47;;;-146.02;43.13
57000;BME280;42891;50.006;21.964;2023-05-10T02:42:15;50942.56;;;-146.02;43.21
57000;BME280;42891;50.006;21.964;2023-05-10T02:46:19;50890.47;;;-146.02;43.24
57000;BME280;42891;50.006;21.964;2023-05-10T02:50:21;50900.50;;;-146.02;43.20
57000;BME280;42891;50.006;21.964;2023-05-10T02:54:31;50892.47;;;-146.02;43.18
57000;BME280;42891;50.006;21.964;2023-05-10T02:58:33;50896.50;;;-146.02;43.22
57000;BME280;42891;50.006;21.964;2023-05-10T03:02:36;50850.41;;;-146.02;43.19
57000;BME280;42891;50.006;21.964;2023-05-10T03:06:37;50928.56;;;-146.02;43.17
57000;BME280;42891;50.006;21.964;2023-05-10T03:10:53;50872.44;;;-146.02;43.21
57000;BME280;42891;50.006;21.964;2023-05-10T03:19:43;50846.41;;;-146.02;43.20
57000;BME280;42891;50.006;21.964;2023-05-10T03:24:07;50820.34;;;-146.02;43.14
57000;BME280;42891;50.006;21.964;2023-05-10T03:28:09;50914.53;;;-146.02;43.15
57000;BME280;42891;50.006;21.964;2023-05-10T03:32:10;50860.44;;;-146.02;43.27
57000;BME280;42891;50.006;21.964;2023-05-10T03:36:10;50852.41;;;-146.02;43.19
57000;BME280;42891;50.006;21.964;2023-05-10T03:40:11;50914.53;;;-146.02;43.15
57000;BME280;42891;50.006;21.964;2023-05-10T03:44:11;50910.53;;;-146.02;43.14
57000;BME280;42891;50.006;21.964;2023-05-10T03:48:12;50894.50;;;-146.02;43.08
57000;BME280;42891;50.006;21.964;2023-05-10T03:52:23;50886.47;;;-146.02;43.24
57000;BME280;42891;50.006;21.964;2023-05-10T03:56:23;50856.41;;;-146.02;43.16
57000;BME280;42891;50.006;21.964;2023-05-10T04:00:24;50886.47;;;-146.02;43.12
57000;BME280;42891;50.006;21.964;2023-05-10T04:04:24;50880.47;;;-146.02;43.09
57000;BME280;42891;50.006;21.964;2023-05-10T04:08:28;50878.47;;;-146.02;43.34
57000;BME280;42891;50.006;21.964;2023-05-10T04:12:29;50880.47;;;-146.02;43.26
57000;BME280;42891;50.006;21.964;2023-05-10T04:16:29;50880.47;;;-146.02;43.04
57000;BME280;42891;50.006;21.964;2023-05-10T04:20:32;50844.41;;;-146.02;43.29
57000;BME280;42891;50.006;21.964;2023-05-10T04:24:36;50882.47;;;-146.02;43.15
57000;BME280;42891;50.006;21.964;2023-05-10T04:28:36;50932.56;;;-146.02;43.22
57000;BME280;42891;50.006;21.964;2023-05-10T04:32:37;50874.44;;;-146.02;43.24
57000;BME280;42891;50.006;21.964;2023-05-10T04:36:40;50916.53;;;-146.02;43.51
57000;BME280;42891;50.006;21.964;2023-05-10T04:41:06;50886.47;;;-146.02;43.29
57000;BME280;42891;50.006;21.964;2023-05-10T04:45:07;50906.50;;;-146.02;43.34
57000;BME280;42891;50.006;21.964;2023-05-10T04:49:09;50902.50;;;-146.02;43.48
57000;BME280;42891;50.006;21.964;2023-05-10T04:53:10;50872.44;;;-146.02;43.43
57000;BME280;42891;50.006;21.964;2023-05-10T04:57:11;50928.56;;;-146.02;43.38
57000;BME280;42891;50.006;21.964;2023-05-10T05:01:11;50860.44;;;-146.02;43.44
57000;BME280;42891;50.006;21.964;2023-05-10T05:05:14;50900.50;;;-146.02;43.44
57000;BME280;42891;50.006;21.964;2023-05-10T05:09:17;50858.41;;;-146.02;43.34
57000;BME280;42891;50.006;21.964;2023-05-10T05:13:17;50872.44;;;-146.02;43.38
57000;BME280;42891;50.006;21.964;2023-05-10T05:17:26;50880.47;;;-146.02;43.44
57000;BME280;42891;50.006;21.964;2023-05-10T05:21:29;50840.38;;;-146.02;43.53
57000;BME280;42891;50.006;21.964;2023-05-10T05:25:33;50908.50;;;-146.02;43.59
57000;BME280;42891;50.006;21.964;2023-05-10T05:29:33;50912.53;;;-146.02;43.40
57000;BME280;42891;50.006;21.964;2023-05-10T05:33:34;50870.44;;;-146.02;43.52
57000;BME280;42891;50.006;21.964;2023-05-10T05:37:37;50860.44;;;-146.02;43.40
57000;BME280;42891;50.006;21.964;2023-05-10T05:41:37;50884.47;;;-146.02;43.58
57000;BME280;42891;50.006;21.964;2023-05-10T05:45:41;50882.47;;;-146.02;43.44
57000;BME280;42891;50.006;21.964;2023-05-10T05:49:41;50872.44;;;-146.02;43.59
57000;BME280;42891;50.006;21.964;2023-05-10T05:53:42;50880.47;;;-146.02;43.52
57000;BME280;42891;50.006;21.964;2023-05-10T05:57:42;50898.50;;;-146.02;43.67
57000;BME280;42891;50.006;21.964;2023-05-10T06:01:42;50892.47;;;-146.02;43.58
57000;BME280;42891;50.006;21.964;2023-05-10T06:05:50;50898.50;;;-146.02;43.55
57000;BME280;42891;50.006;21.964;2023-05-10T06:09:54;50900.50;;;-146.02;43.62
57000;BME280;42891;50.006;21.964;2023-05-10T06:13:58;50850.41;;;-146.02;43.56
57000;BME280;42891;50.006;21.964;2023-05-10T06:17:59;50852.41;;;-146.02;43.50
57000;BME280;42891;50.006;21.964;2023-05-10T06:22:02;50844.41;;;-146.02;43.60
57000;BME280;42891;50.006;21.964;2023-05-10T06:26:05;50860.44;;;-146.02;43.54
57000;BME280;42891;50.006;21.964;2023-05-10T06:30:06;50842.38;;;-146.02;43.65
57000;BME280;42891;50.006;21.964;2023-05-10T06:34:08;50888.47;;;-146.02;43.62
57000;BME280;42891;50.006;21.964;2023-05-10T06:38:09;50850.41;;;-146.02;43.52
57000;BME280;42891;50.006;21.964;2023-05-10T06:42:18;50902.50;;;-146.02;43.62
57000;BME280;42891;50.006;21.964;2023-05-10T06:46:18;50908.50;;;-146.02;43.57
57000;BME280;42891;50.006;21.964;2023-05-10T06:50:19;50880.47;;;-146.02;43.68
57000;BME280;42891;50.006;21.964;2023-05-10T06:54:19;50880.47;;;-146.02;43.67
57000;BME280;42891;50.006;21.964;2023-05-10T06:58:20;50892.47;;;-146.02;43.56
57000;BME280;42891;50.006;21.964;2023-05-10T07:02:20;50884.47;;;-146.02;43.54
57000;BME280;42891;50.006;21.964;2023-05-10T07:06:23;50852.41;;;-146.02;43.52
57000;BME280;42891;50.006;21.964;2023-05-10T07:10:24;50858.41;;;-146.02;43.49
57000;BME280;42891;50.006;21.964;2023-05-10T07:14:24;50874.44;;;-146.02;43.51
57000;BME280;42891;50.006;21.964;2023-05-10T07:18:25;50880.47;;;-146.02;43.65
57000;BME280;42891;50.006;21.964;2023-05-10T07:22:25;50852.41;;;-146.02;43.64
57000;BME280;42891;50.006;21.964;2023-05-10T07:26:26;50884.47;;;-146.02;43.58
57000;BME280;42891;50.006;21.964;2023-05-10T07:30:26;50880.47;;;-146.02;43.62
57000;BME280;42891;50.006;21.964;2023-05-10T07:34:27;50902.50;;;-146.02;43.50
57000;BME280;42891;50.006;21.964;2023-05-10T07:38:30;50882.47;;;-146.02;43.52
57000;BME280;42891;50.006;21.964;2023-05-10T07:42:30;50866.44;;;-146.02;43.47
57000;BME280;42891;50.006;21.964;2023-05-10T07:46:38;50848.41;;;-146.02;43.66
57000;BME280;42891;50.006;21.964;2023-05-10T07:50:39;50886.47;;;-146.02;43.61
57000;BME280;42891;50.006;21.964;2023-05-10T07:54:45;50850.41;;;-146.02;43.50
57000;BME280;42891;50.006;21.964;2023-05-10T07:58:45;50890.47;;;-146.02;43.52
57000;BME280;42891;50.006;21.964;2023-05-10T08:02:50;50872.44;;;-146.02;43.54
57000;BME280;42891;50.006;21.964;2023-05-10T08:06:50;50870.44;;;-146.02;43.52
57000;BME280;42891;50.006;21.964;2023-05-10T08:10:51;50860.44;;;-146.02;43.46
57000;BME280;42891;50.006;21.964;2023-05-10T08:14:54;50864.44;;;-146.02;43.55
57000;BME280;42891;50.006;21.964;2023-05-10T08:18:54;50870.44;;;-146.02;43.58
57000;BME280;42891;50.006;21.964;2023-05-10T08:22:58;50878.47;;;-146.02;43.50
57000;BME280;42891;50.006;21.964;2023-05-10T08:26:58;50870.44;;;-146.02;43.40
57000;BME280;42891;50.006;21.964;2023-05-10T08:31:01;50840.38;;;-146.02;43.40
57000;BME280;42891;50.006;21.964;2023-05-10T08:35:01;50812.34;;;-146.02;43.50
57000;BME280;42891;50.006;21.964;2023-05-10T08:39:02;50860.44;;;-146.02;43.48
57000;BME280;42891;50.006;21.964;2023-05-10T08:43:10;50854.41;;;-146.02;43.35
57000;BME280;42891;50.006;21.964;2023-05-10T08:47:23;50844.41;;;-146.02;43.62
57000;BME280;42891;50.006;21.964;2023-05-10T08:51:27;50852.41;;;-146.02;43.47
57000;BME280;42891;50.006;21.964;2023-05-10T08:55:39;50836.38;;;-146.02;43.30
57000;BME280;42891;50.006;21.964;2023-05-10T08:59:42;50868.44;;;-146.02;43.35
57000;BME280;42891;50.006;21.964;2023-05-10T09:03:43;50858.41;;;-146.02;43.45
57000;BME280;42891;50.006;21.964;2023-05-10T09:07:45;50916.53;;;-146.02;43.43
57000;BME280;42891;50.006;21.964;2023-05-10T09:11:46;50852.41;;;-146.02;43.26
57000;BME280;42891;50.006;21.964;2023-05-10T09:15:47;50894.50;;;-146.02;43.32
57000;BME280;42891;50.006;21.964;2023-05-10T09:19:58;50908.50;;;-146.02;43.38
57000;BME280;42891;50.006;21.964;2023-05-10T09:24:03;50856.41;;;-146.02;43.27
57000;BME280;42891;50.006;21.964;2023-05-10T09:28:11;50876.44;;;-146.02;43.44
57000;BME280;42891;50.006;21.964;2023-05-10T09:32:14;50896.50;;;-146.02;43.41
57000;BME280;42891;50.006;21.964;2023-05-10T09:36:15;50868.44;;;-146.02;43.25
57000;BME280;42891;50.006;21.964;2023-05-10T09:40:24;50816.34;;;-146.02;43.24
57000;BME280;42891;50.006;21.964;2023-05-10T09:44:26;50906.50;;;-146.02;43.37
57000;BME280;42891;50.006;21.964;2023-05-10T09:48:29;50904.50;;;-146.02;43.33
57000;BME280;42891;50.006;21.964;2023-05-10T09:52:54;50860.44;;;-146.02;43.33
57000;BME280;42891;50.006;21.964;2023-05-10T09:56:58;50834.38;;;-146.02;43.33
57000;BME280;42891;50.006;21.964;2023-05-10T10:01:01;50878.47;;;-146.02;43.33
57000;BME280;42891;50.006;21.964;2023-05-10T10:05:02;50880.47;;;-146.02;43.22
57000;BME280;42891;50.006;21.964;2023-05-10T10:09:09;50866.44;;;-146.02;43.29
57000;BME280;42891;50.006;21.964;2023-05-10T10:13:15;50876.44;;;-146.02;43.13
57000;BME280;42891;50.006;21.964;2023-05-10T10:17:19;50866.44;;;-146.02;43.14
57000;BME280;42891;50.006;21.964;2023-05-10T10:21:22;50858.41;;;-146.02;43.33
57000;BME280;42891;50.006;21.964;2023-05-10T10:25:23;50848.41;;;-146.02;43.18
57000;BME280;42891;50.006;21.964;2023-05-10T10:34:00;50856.41;;;-146.02;43.09
57000;BME280;42891;50.006;21.964;2023-05-10T10:38:10;50906.50;;;-146.02;43.18
57000;BME280;42891;50.006;21.964;2023-05-10T10:42:44;50858.41;;;-146.02;43.24
57000;BME280;42891;50.006;21.964;2023-05-10T10:51:02;50834.38;;;-146.02;43.16
57000;BME280;42891;50.006;21.964;2023-05-10T10:55:19;50848.41;;;-146.02;43.04
57000;BME280;42891;50.006;21.964;2023-05-10T10:59:27;50876.44;;;-146.02;43.10
57000;BME280;42891;50.006;21.964;2023-05-10T11:03:29;50852.41;;;-146.02;42.96
57000;BME280;42891;50.006;21.964;2023-05-10T11:07:30;50874.44;;;-146.02;43.10
57000;BME280;42891;50.006;21.964;2023-05-10T11:11:35;50866.44;;;-146.02;43.07
57000;BME280;42891;50.006;21.964;2023-05-10T11:15:38;50878.47;;;-146.02;43.12
57000;BME280;42891;50.006;21.964;2023-05-10T11:20:08;50832.38;;;-146.02;42.93
57000;BME280;42891;50.006;21.964;2023-05-10T11:24:13;50864.44;;;-146.02;42.99
57000;BME280;42891;50.006;21.964;2023-05-10T11:28:16;50868.44;;;-146.02;42.96
57000;BME280;42891;50.006;21.964;2023-05-10T11:32:17;50850.41;;;-146.02;42.92
57000;BME280;42891;50.006;21.964;2023-05-10T11:36:19;50880.47;;;-146.02;42.96
57000;BME280;42891;50.006;21.964;2023-05-10T11:40:23;50880.47;;;-146.02;43.07
57000;BME280;42891;50.006;21.964;2023-05-10T11:44:30;50878.47;;;-146.02;42.79
57000;BME280;42891;50.006;21.964;2023-05-10T11:48:31;50852.41;;;-146.02;42.87
57000;BME280;42891;50.006;21.964;2023-05-10T11:52:36;50872.44;;;-146.02;42.85
57000;BME280;42891;50.006;21.964;2023-05-10T11:56:38;50846.41;;;-146.02;42.94
57000;BME280;42891;50.006;21.964;2023-05-10T12:00:42;50850.41;;;-146.02;42.87
57000;BME280;42891;50.006;21.964;2023-05-10T12:04:42;50808.34;;;-146.02;42.90
57000;BME280;42891;50.006;21.964;2023-05-10T12:08:47;50866.44;;;-146.02;42.86
57000;BME280;42891;50.006;21.964;2023-05-10T12:12:57;50808.34;;;-146.02;42.82
57000;BME280;42891;50.006;21.964;2023-05-10T12:16:57;50822.34;;;-146.02;42.85
57000;BME280;42891;50.006;21.964;2023-05-10T12:21:03;50852.41;;;-146.02;42.76
57000;BME280;42891;50.006;21.964;2023-05-10T12:25:08;50878.47;;;-146.02;42.75
57000;BME280;42891;50.006;21.964;2023-05-10T12:29:16;50828.38;;;-146.02;42.76
57000;BME280;42891;50.006;21.964;2023-05-10T12:33:19;50892.47;;;-146.02;42.65
57000;BME280;42891;50.006;21.964;2023-05-10T12:37:24;50850.41;;;-146.02;42.65
57000;BME280;42891;50.006;21.964;2023-05-10T12:41:24;50854.41;;;-146.02;42.55
57000;BME280;42891;50.006;21.964;2023-05-10T12:45:25;50870.44;;;-146.02;42.59
57000;BME280;42891;50.006;21.964;2023-05-10T12:49:28;50864.44;;;-146.02;42.64
57000;BME280;42891;50.006;21.964;2023-05-10T12:53:31;50824.34;;;-146.02;42.64
57000;BME280;42891;50.006;21.964;2023-05-10T12:57:32;50832.38;;;-146.02;42.55
57000;BME280;42891;50.006;21.964;2023-05-10T13:01:32;50830.38;;;-146.02;42.45
57000;BME280;42891;50.006;21.964;2023-05-10T13:05:35;50834.38;;;-146.02;42.62
57000;BME280;42891;50.006;21.964;2023-05-10T13:09:36;50842.38;;;-146.02;42.52
57000;BME280;42891;50.006;21.964;2023-05-10T13:13:36;50862.44;;;-146.02;42.62
57000;BME280;42891;50.006;21.964;2023-05-10T13:17:36;50850.41;;;-146.02;42.56
57000;BME280;42891;50.006;21.964;2023-05-10T13:21:41;50844.41;;;-146.02;42.76
57000;BME280;42891;50.006;21.964;2023-05-10T13:25:42;50846.41;;;-146.02;42.56
57000;BME280;42891;50.006;21.964;2023-05-10T13:29:42;50824.34;;;-146.02;42.58
57000;BME280;42891;50.006;21.964;2023-05-10T13:33:46;50884.47;;;-146.02;42.66
57000;BME280;42891;50.006;21.964;2023-05-10T13:37:50;50876.44;;;-146.02;42.69
57000;BME280;42891;50.006;21.964;2023-05-10T13:41:50;50870.44;;;-146.02;42.22
57000;BME280;42891;50.006;21.964;2023-05-10T13:45:53;50832.38;;;-146.02;41.80
57000;BME280;42891;50.006;21.964;2023-05-10T13:49:53;50794.31;;;-146.02;41.34
57000;BME280;42891;50.006;21.964;2023-05-10T13:53:54;50826.38;;;-146.02;41.01
57000;BME280;42891;50.006;21.964;2023-05-10T13:57:54;50848.41;;;-146.02;40.75
57000;BME280;42891;50.006;21.964;2023-05-10T14:01:54;50840.38;;;-146.02;40.70
57000;BME280;42891;50.006;21.964;2023-05-10T14:05:58;50852.41;;;-146.02;40.38
57000;BME280;42891;50.006;21.964;2023-05-10T14:10:04;50814.34;;;-146.02;40.08
57000;BME280;42891;50.006;21.964;2023-05-10T14:14:13;50812.34;;;-146.02;39.82
57000;BME280;42891;50.006;21.964;2023-05-10T14:18:13;50832.38;;;-146.02;39.63
57000;BME280;42891;50.006;21.964;2023-05-10T14:22:16;50812.34;;;-146.02;39.58
57000;BME280;42891;50.006;21.964;2023-05-10T14:26:39;50846.41;;;-146.02;38.97
57000;BME280;42891;50.006;21.964;2023-05-10T14:30:49;50846.41;;;-146.02;38.93
57000;BME280;42891;50.006;21.964;2023-05-10T14:34:53;50852.41;;;-146.02;38.96
57000;BME280;42891;50.006;21.964;2023-05-10T14:38:53;50868.44;;;-146.02;38.92
57000;BME280;42891;50.006;21.964;2023-05-10T14:42:54;50894.50;;;-146.02;38.39
57000;BME280;42891;50.006;21.964;2023-05-10T14:46:54;50840.38;;;-146.02;38.74
57000;BME280;42891;50.006;21.964;2023-05-10T14:50:57;50850.41;;;-146.02;38.31
57000;BME280;42891;50.006;21.964;2023-05-10T14:54:57;50844.41;;;-146.02;38.84
57000;BME280;42891;50.006;21.964;2023-05-10T14:59:00;50814.34;;;-146.02;38.87
57000;BME280;42891;50.006;21.964;2023-05-10T15:03:01;50820.34;;;-146.02;39.55
57000;BME280;42891;50.006;21.964;2023-05-10T15:07:04;50828.38;;;-146.02;39.05
57000;BME280;42891;50.006;21.964;2023-05-10T15:11:04;50816.34;;;-146.02;38.94
57000;BME280;42891;50.006;21.964;2023-05-10T15:15:05;50850.41;;;-146.02;38.94
57000;BME280;42891;50.006;21.964;2023-05-10T15:19:06;50820.34;;;-146.02;38.28
57000;BME280;42891;50.006;21.964;2023-05-10T15:23:07;50802.31;;;-146.02;37.34
57000;BME280;42891;50.006;21.964;2023-05-10T15:27:07;50790.28;;;-146.02;36.72
57000;BME280;42891;50.006;21.964;2023-05-10T15:31:08;50836.38;;;-146.02;35.60
57000;BME280;42891;50.006;21.964;2023-05-10T15:35:09;50832.38;;;-146.02;35.17
57000;BME280;42891;50.006;21.964;2023-05-10T15:39:10;50812.34;;;-146.02;34.85
57000;BME280;42891;50.006;21.964;2023-05-10T15:43:11;50806.31;;;-146.02;34.77
57000;BME280;42891;50.006;21.964;2023-05-10T15:47:11;50800.31;;;-146.02;34.42
57000;BME280;42891;50.006;21.964;2023-05-10T15:51:12;50806.31;;;-146.02;34.14
57000;BME280;42891;50.006;21.964;2023-05-10T15:55:13;50796.31;;;-146.02;33.90
57000;BME280;42891;50.006;21.964;2023-05-10T15:59:13;50830.38;;;-146.02;33.69
57000;BME280;42891;50.006;21.964;2023-05-10T16:03:13;50784.28;;;-146.02;33.32
57000;BME280;42891;50.006;21.964;2023-05-10T16:07:14;50820.34;;;-146.02;32.71
57000;BME280;42891;50.006;21.964;2023-05-10T16:11:14;50804.31;;;-146.02;32.76
57000;BME280;42891;50.006;21.964;2023-05-10T16:15:17;50810.34;;;-146.02;33.16
57000;BME280;42891;50.006;21.964;2023-05-10T16:19:17;50814.34;;;-146.02;33.28
57000;BME280;42891;50.006;21.964;2023-05-10T16:23:18;50808.34;;;-146.02;32.97
57000;BME280;42891;50.006;21.964;2023-05-10T16:27:19;50808.34;;;-146.02;33.10
57000;BME280;42891;50.006;21.964;2023-05-10T16:31:19;50888.47;;;-146.02;32.99
57000;BME280;42891;50.006;21.964;2023-05-10T16:35:20;50828.38;;;-146.02;32.96
57000;BME280;42891;50.006;21.964;2023-05-10T16:39:21;50842.38;;;-146.02;32.90
57000;BME280;42891;50.006;21.964;2023-05-10T16:43:22;50836.38;;;-146.02;33.16
57000;BME280;42891;50.006;21.964;2023-05-10T16:47:28;50810.34;;;-146.02;33.19
57000;BME280;42891;50.006;21.964;2023-05-10T16:51:29;50790.28;;;-146.02;33.51
57000;BME280;42891;50.006;21.964;2023-05-10T16:55:51;50824.34;;;-146.02;33.53
57000;BME280;42891;50.006;21.964;2023-05-10T17:04:28;50806.31;;;-146.02;33.67
57000;BME280;42891;50.006;21.964;2023-05-10T17:08:53;50802.31;;;-146.02;34.13
57000;BME280;42891;50.006;21.964;2023-05-10T17:12:56;50828.38;;;-146.02;34.22
57000;BME280;42891;50.006;21.964;2023-05-10T17:17:00;50812.34;;;-146.02;34.57
57000;BME280;42891;50.006;21.964;2023-05-10T18:34:01;50788.28;;;-146.02;36.13
57000;BME280;42891;50.006;21.964;2023-05-10T18:38:05;50804.31;;;-146.02;35.89
57000;BME280;42891;50.006;21.964;2023-05-10T18:42:38;50792.31;;;-146.02;36.01
57000;BME280;42891;50.006;21.964;2023-05-10T18:47:00;50804.31;;;-146.02;36.07
57000;BME280;42891;50.006;21.964;2023-05-10T18:51:06;50822.34;;;-146.02;36.07
57000;BME280;42891;50.006;21.964;2023-05-10T19:00:42;50820.34;;;-146.02;36.35
57000;BME280;42891;50.006;21.964;2023-05-10T19:05:39;50840.38;;;-146.02;36.29
57000;BME280;42891;50.006;21.964;2023-05-10T19:10:06;50856.41;;;-146.02;36.71
57000;BME280;42891;50.006;21.964;2023-05-10T19:14:32;50776.28;;;-146.02;36.82
57000;BME280;42891;50.006;21.964;2023-05-10T19:18:46;50794.31;;;-146.02;36.79
57000;BME280;42891;50.006;21.964;2023-05-10T19:28:01;50840.38;;;-146.02;37.24
57000;BME280;42891;50.006;21.964;2023-05-10T19:32:06;50836.38;;;-146.02;37.10
57000;BME280;42891;50.006;21.964;2023-05-10T19:36:23;50802.31;;;-146.02;37.41
57000;BME280;42891;50.006;21.964;2023-05-10T19:40:24;50806.31;;;-146.02;37.07
57000;BME280;42891;50.006;21.964;2023-05-10T19:45:07;50780.28;;;-146.02;37.49
57000;BME280;42891;50.006;21.964;2023-05-10T19:50:18;50834.38;;;-146.02;37.66
57000;BME280;42891;50.006;21.964;2023-05-10T19:54:07;50802.31;;;-146.02;37.83
57000;BME280;42891;50.006;21.964;2023-05-10T19:58:44;50802.31;;;-146.02;37.97
57000;BME280;42891;50.006;21.964;2023-05-10T20:08:39;50798.31;;;-146.02;38.11
57000;BME280;42891;50.006;21.964;2023-05-10T20:23:15;50778.28;;;-146.02;38.85
57000;BME280;42891;50.006;21.964;2023-05-10T20:28:03;50856.41;;;-146.02;38.77
57000;BME280;42891;50.006;21.964;2023-05-10T20:32:59;50786.28;;;-146.02;38.88
57000;BME280;42891;50.006;21.964;2023-05-10T20:37:13;50792.31;;;-146.02;39.08
57000;BME280;42891;50.006;21.964;2023-05-10T20:41:31;50804.31;;;-146.02;39.17
57000;BME280;42891;50.006;21.964;2023-05-10T20:45:56;50824.34;;;-146.02;38.80
57000;BME280;42891;50.006;21.964;2023-05-10T20:50:47;50792.31;;;-146.02;39.43
57000;BME280;42891;50.006;21.964;2023-05-10T21:00:01;50818.34;;;-146.02;39.28
57000;BME280;42891;50.006;21.964;2023-05-10T21:08:55;50846.41;;;-146.02;39.04
57000;BME280;42891;50.006;21.964;2023-05-10T21:12:55;50854.41;;;-146.02;38.74
57000;BME280;42891;50.006;21.964;2023-05-10T21:16:55;50842.38;;;-146.02;39.22
57000;BME280;42891;50.006;21.964;2023-05-10T21:20:59;50834.38;;;-146.02;39.56
57000;BME280;42891;50.006;21.964;2023-05-10T21:24:59;50802.31;;;-146.02;38.93
57000;BME280;42891;50.006;21.964;2023-05-10T21:29:00;50772.25;;;-146.02;38.67
57000;BME280;42891;50.006;21.964;2023-05-10T21:33:12;50826.38;;;-146.02;39.70
57000;BME280;42891;50.006;21.964;2023-05-10T21:37:14;50806.31;;;-146.02;39.31
57000;BME280;42891;50.006;21.964;2023-05-10T21:41:16;50810.34;;;-146.02;38.85
57000;BME280;42891;50.006;21.964;2023-05-10T21:45:22;50828.38;;;-146.02;39.04
57000;BME280;42891;50.006;21.964;2023-05-10T21:49:23;50806.31;;;-146.02;39.57
57000;BME280;42891;50.006;21.964;2023-05-10T21:53:23;50844.41;;;-146.02;38.94
57000;BME280;42891;50.006;21.964;2023-05-10T21:57:27;50810.34;;;-146.02;39.04
57000;BME280;42891;50.006;21.964;2023-05-10T22:01:29;50832.38;;;-146.02;38.87
57000;BME280;42891;50.006;21.964;2023-05-10T22:05:30;50818.34;;;-146.02;39.45
57000;BME280;42891;50.006;21.964;2023-05-10T22:09:30;50806.31;;;-146.02;39.28
57000;BME280;42891;50.006;21.964;2023-05-10T22:13:30;50846.41;;;-146.02;39.13
57000;BME280;42891;50.006;21.964;2023-05-10T22:17:36;50816.34;;;-146.02;38.70
57000;BME280;42891;50.006;21.964;2023-05-10T22:21:42;50812.34;;;-146.02;39.26
57000;BME280;42891;50.006;21.964;2023-05-10T22:25:46;50810.34;;;-146.02;38.97
57000;BME280;42891;50.006;21.964;2023-05-10T22:29:46;50806.31;;;-146.02;39.64
57000;BME280;42891;50.006;21.964;2023-05-10T22:33:51;50844.41;;;-146.02;39.77
57000;BME280;42891;50.006;21.964;2023-05-10T22:38:01;50806.31;;;-146.02;39.53
57000;BME280;42891;50.006;21.964;2023-05-10T22:42:01;50816.34;;;-146.02;39.87
57000;BME280;42891;50.006;21.964;2023-05-10T22:46:02;50768.25;;;-146.02;39.62
57000;BME280;42891;50.006;21.964;2023-05-10T22:50:05;50850.41;;;-146.02;39.72
57000;BME280;42891;50.006;21.964;2023-05-10T22:54:09;50836.38;;;-146.02;39.36
57000;BME280;42891;50.006;21.964;2023-05-10T22:58:10;50822.34;;;-146.02;39.74